Latest Weather Observations for Mount Crawford

IDS60801

Issued at 4:31 pm CST Sunday 28 August 2016 (issued every 30 minutes, with the page automatically refreshed every 10 minutes)

About weather observations | Map of weather stations | Latest weather observations for SA | Other Formats
Station Details ID: 023878 Name: MOUNT CRAWFORD AWS Lat: -34.73 Lon: 138.93 Height: 525.0 m
Data from the previous 72 hours. | See also: Recent months at Mount Crawford
Date/Time
CST
Temp
°C
App
Temp
°C
Dew
Point
°C
Rel
Hum
%
Delta-T
°C
Wind Press
QNH
hPa
Press
MSL
hPa
Rain since
9am
mm
Dir  Spd
km/h
Gust
km/h
Spd
kts
Gust
kts
28/04:30pm 14.8 6.9 2.4 43 5.7 NE 33 46 18 25 1013.9 1014.1 0.0
28/04:00pm 15.1 6.8 2.0 41 6.0 NE 35 44 19 24 1014.3 1014.5 0.0
28/03:35pm 15.5 8.5 2.0 40 6.2 NE 28 46 15 25 1014.4 1014.7 0.0
28/03:30pm 15.9 9.8 3.0 42 6.0 NE 24 35 13 19 1014.4 1014.7 0.0
28/03:00pm 16.0 10.1 3.8 44 5.8 NE 24 35 13 19 1014.5 1014.8 0.0
28/02:30pm 16.1 10.7 4.5 46 5.6 NE 22 35 12 19 1014.5 1014.8 0.0
28/02:00pm 16.0 9.5 4.7 47 5.5 NNE 28 37 15 20 1014.8 1015.1 0.0
28/01:30pm 15.8 9.3 4.8 48 5.3 NNE 28 35 15 19 1015.3 1015.5 0.0
28/01:00pm 15.9 10.0 5.8 51 5.0 NNE 26 39 14 21 1015.8 1016.0 0.0
28/12:30pm 15.7 10.0 5.0 49 5.2 N 24 39 13 21 1016.5 1016.8 0.0
28/12:00pm 15.4 9.6 6.4 55 4.5 NNW 26 35 14 19 1017.1 1017.3 0.0
28/11:30am 14.7 7.8 4.7 51 4.8 N 30 41 16 22 1017.4 1017.6 0.0
28/11:00am 14.6 8.6 3.4 47 5.2 N 24 37 13 20 1017.6 1017.8 0.0
28/10:30am 13.9 7.0 2.8 47 5.1 N 28 39 15 21 1017.8 1018.1 0.0
28/10:00am 13.6 6.6 1.9 45 5.2 NNE 28 44 15 24 1017.9 1018.2 0.0
28/09:30am 13.1 6.6 2.4 48 4.8 NNE 26 39 14 21 1018.0 1018.3 0.0
28/09:00am 13.1 6.6 2.4 48 4.8 NNE 26 41 14 22 1018.1 1018.4 0.0
28/08:30am 12.3 6.3 1.3 47 4.8 NNE 22 30 12 16 1018.0 1018.3 0.0
28/08:00am 11.3 5.2 0.7 48 4.5 N 22 32 12 17 1018.3 1018.6 0.0
28/07:30am 11.0 5.4 0.1 47 4.6 N 19 26 10 14 1018.2 1018.5 0.0
28/07:00am 10.3 5.1 0.3 50 4.2 NNE 17 24 9 13 1017.9 1018.2 0.0
28/06:30am 10.8 5.6 0.2 48 4.4 N 17 22 9 12 1017.7 1018.0 0.0
28/06:00am 10.5 5.3 0.3 49 4.3 N 17 22 9 12 1017.6 1017.8 0.0
28/05:30am 10.8 5.6 0.2 48 4.4 N 17 24 9 13 1017.5 1017.7 0.0
28/05:00am 10.9 6.1 0.0 47 4.6 N 15 20 8 11 1017.2 1017.4 0.0
28/04:30am 11.3 6.1 0.1 46 4.7 N 17 24 9 13 1016.9 1017.2 0.0
28/04:00am 11.5 6.0 0.3 46 4.8 NNW 19 26 10 14 1016.9 1017.2 0.0
28/03:30am 11.3 5.2 0.1 46 4.7 N 22 30 12 16 1017.1 1017.3 0.0
28/03:00am 11.4 5.6 0.2 46 4.7 N 20 28 11 15 1017.5 1017.7 0.0
28/02:30am 11.2 5.7 0.3 47 4.6 N 19 24 10 13 1018.0 1018.3 0.0
28/02:00am 11.0 5.3 0.7 49 4.4 NNW 20 28 11 15 1018.2 1018.5 0.0
28/01:30am 11.1 5.4 0.8 49 4.4 NW 20 28 11 15 1018.2 1018.5 0.0
28/01:00am 11.1 5.1 0.8 49 4.4 NW 22 30 12 16 1018.3 1018.6 0.0
28/12:30am 11.1 5.5 1.1 50 4.3 NW 20 28 11 15 1018.2 1018.5 0.0
28/12:00am 10.8 4.8 1.1 51 4.2 NNW 22 30 12 16 1018.2 1018.5 0.0
 
Date/Time
CST
Temp
°C
App
Temp
°C
Dew
Point
°C
Rel
Hum
%
Delta-T
°C
Wind Press
QNH
hPa
Press
MSL
hPa
Rain since
9am
mm
Dir  Spd
km/h
Gust
km/h
Spd
kts
Gust
kts
27/11:30pm 11.5 5.0 0.6 47 4.6 NNW 24 32 13 17 1018.3 1018.6 0.0
27/11:00pm 11.6 6.0 1.0 48 4.6 NNW 20 30 11 16 1018.2 1018.5 0.0
27/10:30pm 11.4 6.0 1.1 49 4.4 NNW 19 22 10 12 1018.6 1018.9 0.0
27/10:00pm 11.3 5.7 1.5 51 4.3 N 20 30 11 16 1018.7 1019.0 0.0
27/09:30pm 11.4 6.0 1.4 50 4.3 N 19 32 10 17 1018.7 1019.0 0.0
27/09:00pm 11.2 5.6 0.9 49 4.4 N 20 30 11 16 1019.2 1019.4 0.0
27/08:30pm 11.2 5.7 0.9 49 4.4 N 19 24 10 13 1019.2 1019.4 0.0
27/08:00pm 10.9 6.0 2.0 54 3.9 NNW 17 24 9 13 1019.0 1019.3 0.0
27/07:30pm 10.5 5.9 3.5 62 3.2 NNW 17 24 9 13 1019.2 1019.4 0.0
27/07:00pm 10.8 6.1 3.1 59 3.5 NNW 17 22 9 12 1018.9 1019.2 0.0
27/06:30pm 11.1 6.6 2.4 55 3.8 NW 15 22 8 12 1018.7 1019.0 0.0
27/06:00pm 11.3 6.9 2.6 55 3.9 NW 15 20 8 11 1018.2 1018.5 0.0
27/05:30pm 11.3 7.3 2.6 55 3.9 WNW 13 20 7 11 1018.2 1018.5 0.0
27/05:00pm 11.7 6.4 1.9 51 4.3 WNW 19 30 10 16 1018.0 1018.3 0.0
27/04:30pm 13.2 8.0 3.3 51 4.5 NW 20 32 11 17 1018.1 1018.4 0.0
27/04:00pm 12.9 6.0 2.7 50 4.6 WNW 28 39 15 21 1017.8 1018.1 0.0
27/03:30pm 12.9 7.7 3.8 54 4.2 WNW 20 37 11 20 1018.1 1018.4 0.0
27/03:00pm 12.4 6.1 3.6 55 4.0 WNW 26 39 14 21 1018.3 1018.6 0.0
27/02:30pm 12.3 6.2 3.0 53 4.2 WNW 24 35 13 19 1018.4 1018.7 0.0
27/02:00pm 11.9 5.4 2.6 53 4.2 WNW 26 41 14 22 1018.9 1019.2 0.0
27/01:48pm 11.7 4.4 -0.1 44 5.0 WNW 28 46 15 25 1019.0 1019.3 0.0
27/01:30pm 12.2 6.3 3.7 56 3.9 WNW 24 41 13 22 1019.0 1019.3 0.0
27/01:00pm 12.3 5.4 2.7 52 4.3 WNW 28 39 15 21 1019.3 1019.6 0.0
27/12:39pm 11.8 4.6 2.8 54 4.0 W 30 50 16 27 1019.5 1019.8 0.0
27/12:30pm 12.1 5.3 3.1 54 4.1 WNW 28 39 15 21 1019.8 1020.1 0.0
27/12:16pm 11.7 4.0 2.5 53 4.1 WNW 32 50 17 27 1019.9 1020.2 0.0
27/12:00pm 11.9 5.6 3.9 58 3.7 WNW 26 41 14 22 1020.2 1020.5 0.0
27/11:30am 11.4 4.7 3.7 59 3.5 WNW 28 50 15 27 1020.6 1020.9 0.0
27/11:29am 11.3 4.5 3.3 58 3.6 WNW 28 50 15 27 1020.5 1020.8 0.0
27/11:00am 11.2 5.2 3.5 59 3.5 WNW 24 37 13 20 1020.7 1021.0 0.0
27/10:30am 10.5 5.0 3.8 63 3.0 WNW 22 39 12 21 1020.9 1021.3 0.0
27/10:00am 9.8 4.7 4.0 67 2.6 WNW 20 30 11 16 1021.4 1021.7 0.0
27/09:30am 9.1 4.5 3.7 69 2.4 NW 17 24 9 13 1021.5 1021.8 0.0
27/09:00am 8.6 3.0 3.4 70 2.3 NNW 22 33 12 18 1021.7 1022.0 0.0
27/08:30am 7.8 1.8 3.1 72 2.0 NNW 24 33 13 18 1021.7 1022.0 0.0
27/08:00am 7.4 1.3 2.9 73 2.0 NNW 24 32 13 17 1021.4 1021.7 0.0
27/07:30am 6.5 1.1 2.2 74 1.8 N 20 26 11 14 1021.4 1021.7 0.0
27/07:00am 5.5 0.6 2.2 79 1.4 N 17 22 9 12 1021.3 1021.6 0.0
27/06:30am 5.0 0.5 2.0 81 1.2 N 15 20 8 11 1021.2 1021.5 0.0
27/06:00am 5.3 0.4 2.0 79 1.4 N 17 20 9 11 1020.9 1021.3 0.0
27/05:30am 5.1 0.2 1.8 79 1.4 N 17 20 9 11 1020.8 1021.1 0.0
27/05:00am 5.4 0.5 2.1 79 1.4 NNW 17 22 9 12 1020.9 1021.3 0.0
27/04:30am 5.4 0.9 2.4 81 1.3 N 15 19 8 10 1020.9 1021.3 0.0
27/04:00am 5.4 0.9 2.4 81 1.3 N 15 20 8 11 1021.0 1021.4 0.0
27/03:30am 5.2 0.8 2.7 84 1.1 N 15 19 8 10 1021.0 1021.4 0.0
27/03:00am 5.1 0.7 2.5 83 1.1 NNE 15 17 8 9 1021.4 1021.7 0.0
27/02:30am 5.1 0.9 1.9 80 1.3 NNE 13 17 7 9 1021.6 1021.9 0.0
27/02:00am 5.2 0.7 1.9 79 1.4 NNE 15 17 8 9 1021.7 1022.0 0.0
27/01:30am 5.0 0.8 1.5 78 1.4 NNE 13 17 7 9 1021.9 1022.2 0.0
27/01:00am 5.5 1.4 2.0 78 1.5 NNE 13 15 7 8 1021.9 1022.2 0.0
27/12:30am 5.6 1.4 1.9 77 1.5 NNE 13 15 7 8 1021.9 1022.2 0.0
27/12:00am 5.3 1.5 2.0 79 1.4 NE 11 13 6 7 1022.0 1022.3 0.0
 
Date/Time
CST
Temp
°C
App
Temp
°C
Dew
Point
°C
Rel
Hum
%
Delta-T
°C
Wind Press
QNH
hPa
Press
MSL
hPa
Rain since
9am
mm
Dir  Spd
km/h
Gust
km/h
Spd
kts
Gust
kts
26/11:30pm 5.5 1.7 2.0 78 1.5 NE 11 13 6 7 1022.5 1022.9 0.0
26/11:00pm 5.6 2.2 2.1 78 1.5 NE 9 9 5 5 1022.9 1023.3 0.0
26/10:30pm 5.7 1.9 2.0 77 1.5 ENE 11 13 6 7 1022.8 1023.2 0.0
26/10:00pm 5.7 2.3 2.0 77 1.5 ENE 9 11 5 6 1023.0 1023.4 0.0
26/09:30pm 5.8 2.4 2.1 77 1.5 ENE 9 9 5 5 1023.0 1023.4 0.0
26/09:00pm 6.1 3.3 2.0 75 1.7 S 6 7 3 4 1023.2 1023.5 0.0
26/08:30pm 6.6 3.5 1.5 70 2.1 SSW 7 9 4 5 1023.3 1023.6 0.0
26/08:00pm 6.7 3.7 1.8 71 2.1 SSW 7 9 4 5 1023.3 1023.6 0.0
26/07:30pm 6.6 3.2 1.9 72 2.0 SW 9 11 5 6 1023.0 1023.4 0.0
26/07:00pm 6.5 3.2 2.2 74 1.8 SW 9 13 5 7 1022.9 1023.3 0.0
26/06:30pm 6.2 2.5 2.3 76 1.6 WSW 11 15 6 8 1022.7 1023.1 0.0
26/06:00pm 6.6 3.3 2.3 74 1.8 WSW 9 13 5 7 1022.6 1023.0 0.0
26/05:30pm 8.0 4.4 2.7 69 2.3 WSW 11 13 6 7 1022.4 1022.7 0.0
26/05:00pm 7.7 4.1 3.0 72 2.0 WSW 11 15 6 8 1022.2 1022.5 0.0
26/04:30pm 7.9 4.8 3.8 75 1.8 WSW 9 15 5 8 1022.1 1022.4 0.0
26/04:00pm 8.0 4.5 3.7 74 1.9 WSW 11 15 6 8 1021.9 1022.2 0.0
26/03:30pm 8.3 4.4 3.6 72 2.1 WSW 13 17 7 9 1021.9 1022.2 0.0
26/03:00pm 8.2 4.4 3.9 74 1.9 SW 13 19 7 10 1022.1 1022.4 0.0
26/02:30pm 8.2 4.4 3.9 74 1.9 WSW 13 17 7 9 1022.2 1022.5 0.0
26/02:00pm 7.9 4.3 4.8 81 1.4 WSW 13 19 7 10 1022.4 1022.7 0.0
26/01:30pm 7.5 3.9 5.0 84 1.1 W 13 19 7 10 1022.5 1022.9 0.0
26/01:00pm 7.7 4.9 5.0 83 1.2 W 9 17 5 9 1022.8 1023.2 0.0
26/12:30pm 7.8 4.6 4.9 82 1.3 WSW 11 15 6 8 1023.3 1023.6 0.0
26/12:00pm 7.8 4.1 4.7 81 1.4 WSW 13 19 7 10 1023.6 1023.9 0.0
26/11:30am 7.6 3.9 4.6 81 1.3 WSW 13 17 7 9 1024.0 1024.3 0.0
26/11:00am 7.8 4.3 5.6 86 1.0 WSW 13 17 7 9 1024.1 1024.4 0.0
26/10:30am 7.7 4.4 6.2 90 0.7 WSW 13 19 7 10 1024.1 1024.4 0.0
26/10:00am 6.6 4.1 6.5 99 0.0 WSW 9 13 5 7 1024.1 1024.4 0.0
26/09:30am 6.3 4.1 6.2 99 0.0 WSW 7 9 4 5 1024.3 1024.7 0.0
26/09:00am 6.5 4.3 6.4 99 0.0 SW 7 11 4 6 1024.3 1024.7 1.4
26/08:30am 6.3 4.1 6.2 99 0.0 WSW 7 9 4 5 1024.1 1024.4 1.4
26/08:00am 5.9 3.6 5.8 99 0.0 WSW 7 9 4 5 1023.8 1024.1 1.4
26/07:30am 4.6 2.2 4.5 99 0.0 SW 6 7 3 4 1023.6 1023.9 1.4
26/07:00am 5.1 2.2 4.7 97 0.2 SW 9 13 5 7 1023.3 1023.6 1.4
26/06:30am 5.3 2.1 5.2 99 0.0 SW 11 13 6 7 1022.9 1023.3 1.4
26/06:00am 5.3 2.5 5.2 99 0.0 SW 9 15 5 8 1022.5 1022.9 1.4
26/05:30am 4.9 1.6 4.8 99 0.0 SW 11 19 6 10 1022.1 1022.4 1.4
26/05:00am 4.8 1.5 4.7 99 0.0 SW 11 15 6 8 1021.9 1022.2 1.4
26/04:30am 4.8 1.1 4.7 99 0.0 SW 13 17 7 9 1021.8 1022.1 1.4
26/04:00am 5.2 1.6 5.2 100 0.0 SW 13 19 7 10 1021.7 1022.0 1.4
26/03:30am 5.2 1.3 5.2 100 0.0 SW 15 20 8 11 1021.6 1021.9 1.4
26/03:00am 4.9 1.6 4.8 99 0.0 SW 11 15 6 8 1021.6 1021.9 1.4
26/02:30am 5.2 1.6 5.1 99 0.0 SW 13 17 7 9 1021.8 1022.1 1.4
26/02:00am 5.2 2.0 5.1 99 0.0 SW 11 15 6 8 1021.9 1022.2 1.4
26/01:30am 4.9 1.6 4.8 99 0.0 SW 11 15 6 8 1022.0 1022.3 1.2
26/01:00am 5.5 2.0 5.4 99 0.0 S 13 17 7 9 1021.9 1022.2 1.2
26/12:30am 5.7 2.2 5.6 99 0.0 S 13 15 7 8 1021.9 1022.2 1.2
26/12:00am 5.6 2.5 5.5 99 0.0 SSE 11 15 6 8 1021.8 1022.1 1.2
 
Date/Time
CST
Temp
°C
App
Temp
°C
Dew
Point
°C
Rel
Hum
%
Delta-T
°C
Wind Press
QNH
hPa
Press
MSL
hPa
Rain since
9am
mm
Dir  Spd
km/h
Gust
km/h
Spd
kts
Gust
kts
25/11:30pm 5.5 1.6 5.5 100 0.0 S 15 19 8 10 1021.8 1022.1 1.2
25/11:00pm 5.5 2.0 5.5 100 0.0 S 13 17 7 9 1021.8 1022.1 1.2
25/10:30pm 5.4 1.9 5.4 100 0.0 SSE 13 15 7 8 1021.9 1022.2 1.2
25/10:00pm 5.3 1.8 5.3 100 0.0 SSW 13 19 7 10 1021.8 1022.1 1.2
25/09:30pm 5.7 1.5 5.7 100 0.0 SSW 17 20 9 11 1021.8 1022.1 1.2
25/09:00pm 5.7 2.3 5.7 100 0.0 S 13 17 7 9 1021.7 1022.0 1.2
25/08:30pm 5.8 3.5 5.7 99 0.0 SW 7 11 4 6 1021.6 1021.9 1.2
25/08:00pm 5.9 2.5 5.8 99 0.0 S 13 17 7 9 1021.2 1021.5 1.2
25/07:30pm 6.2 2.8 6.1 99 0.0 S 13 17 7 9 1020.9 1021.3 1.2
25/07:00pm 6.1 2.3 6.0 99 0.0 S 15 19 8 10 1020.7 1021.0 1.2
25/06:30pm 6.4 3.8 6.3 99 0.0 SSW 9 11 5 6 1020.5 1020.8 1.2
25/06:00pm 6.8 3.9 6.7 99 0.0 SSW 11 19 6 10 1020.4 1020.7 1.2
25/05:30pm 7.0 3.8 6.7 98 0.1 SSW 13 20 7 11 1020.0 1020.3 1.0
25/05:00pm 7.5 4.3 6.8 95 0.3 SW 13 17 7 9 1019.6 1019.9 0.8

Other Formats:

Comma delimited format used in spreadsheet applications
http://www.bom.gov.au/fwo/IDS60801/IDS60801.94678.axf

JavaScript Object Notation format (JSON) in row-major order
http://www.bom.gov.au/fwo/IDS60801/IDS60801.94678.json